createdAt,value
2022-10-31T00:00:28.569Z,6.49
2022-10-31T00:02:55.142Z,6.07
2022-10-31T00:05:21.727Z,6.10
2022-10-31T00:07:48.382Z,5.99
2022-10-31T00:10:15.079Z,6.29
2022-10-31T00:12:41.667Z,6.64
2022-10-31T00:15:08.528Z,6.83
2022-10-31T00:17:36.934Z,7.05
2022-10-31T00:20:03.812Z,7.16
2022-10-31T00:22:30.443Z,6.14
2022-10-31T00:24:57.048Z,6.31
2022-10-31T00:27:23.766Z,6.60
2022-10-31T00:29:50.424Z,6.82
2022-10-31T00:32:17.124Z,6.60
2022-10-31T00:34:43.707Z,6.33
2022-10-31T00:37:10.350Z,6.40
2022-10-31T00:39:37.009Z,6.19
2022-10-31T00:42:03.714Z,6.22
2022-10-31T00:44:30.383Z,6.26
2022-10-31T00:46:56.994Z,6.06
2022-10-31T00:49:23.843Z,6.17
2022-10-31T00:51:50.490Z,6.07
2022-10-31T00:54:17.159Z,5.96
2022-10-31T00:56:43.749Z,6.25
2022-10-31T00:59:10.416Z,6.02
2022-10-31T01:01:37.220Z,6.05
2022-10-31T01:04:04.129Z,6.00
2022-10-31T01:06:30.742Z,5.96
2022-10-31T01:08:57.318Z,5.77
2022-10-31T01:11:24.517Z,5.74
2022-10-31T01:13:52.842Z,5.82
2022-10-31T01:16:21.925Z,5.69
2022-10-31T01:18:48.574Z,5.77
2022-10-31T01:21:17.830Z,5.66
2022-10-31T01:23:44.558Z,5.35
2022-10-31T01:26:15.167Z,5.08
2022-10-31T01:28:49.568Z,5.24
2022-10-31T01:31:16.562Z,5.21
2022-10-31T01:33:43.253Z,5.34
2022-10-31T01:36:14.804Z,4.91
2022-10-31T01:38:41.483Z,4.96
2022-10-31T01:41:08.192Z,4.92
2022-10-31T01:44:01.053Z,4.85
2022-10-31T01:46:37.926Z,4.92
2022-10-31T01:49:14.437Z,5.15
2022-10-31T01:51:44.216Z,5.39
2022-10-31T01:54:13.426Z,5.41
2022-10-31T01:56:41.635Z,5.39
2022-10-31T01:59:09.785Z,4.82
2022-10-31T02:01:36.694Z,4.79
2022-10-31T02:04:03.354Z,4.96
2022-10-31T02:06:41.906Z,5.37
2022-10-31T02:09:08.571Z,5.39
2022-10-31T02:11:35.821Z,5.68
2022-10-31T02:14:03.398Z,5.80
2022-10-31T02:16:30.033Z,6.01
2022-10-31T02:18:56.934Z,6.10
2022-10-31T02:21:42.478Z,5.83
2022-10-31T02:24:46.859Z,5.97
2022-10-31T02:27:41.177Z,5.85
2022-10-31T02:30:22.040Z,6.10
2022-10-31T02:32:51.662Z,6.28
2022-10-31T02:35:39.190Z,5.90
2022-10-31T02:38:27.713Z,5.85
2022-10-31T02:40:54.181Z,6.19
2022-10-31T02:43:32.599Z,6.25
2022-10-31T02:46:04.437Z,6.31
2022-10-31T02:48:31.553Z,6.35
2022-10-31T02:51:00.761Z,6.38
2022-10-31T02:53:27.470Z,5.68
2022-10-31T02:55:53.964Z,5.56
2022-10-31T02:58:23.892Z,5.80
2022-10-31T03:01:27.548Z,6.05
2022-10-31T03:04:23.461Z,6.20
2022-10-31T03:07:02.457Z,6.21
2022-10-31T03:09:55.299Z,6.26
2022-10-31T03:12:31.086Z,6.17
2022-10-31T03:15:06.835Z,6.14
2022-10-31T03:17:37.508Z,6.10
2022-10-31T03:20:04.931Z,6.32
2022-10-31T03:22:32.450Z,6.37
2022-10-31T03:24:59.030Z,6.49
2022-10-31T03:27:26.947Z,6.29
2022-10-31T03:29:57.815Z,6.59
2022-10-31T03:32:29.103Z,6.39
2022-10-31T03:34:57.066Z,6.28
2022-10-31T03:37:24.758Z,6.56
2022-10-31T03:39:51.494Z,6.37
2022-10-31T03:42:28.322Z,6.46
2022-10-31T03:44:57.860Z,6.46
2022-10-31T03:47:24.475Z,6.53
2022-10-31T03:49:51.263Z,6.58
2022-10-31T03:52:30.266Z,6.59
2022-10-31T03:55:20.639Z,6.79
2022-10-31T03:58:03.653Z,6.57
2022-10-31T04:00:31.453Z,6.83
2022-10-31T04:03:11.056Z,7.00
2022-10-31T04:05:37.717Z,6.93
2022-10-31T04:08:05.837Z,6.95
2022-10-31T04:10:33.360Z,7.00
2022-10-31T04:13:09.213Z,6.95
2022-10-31T04:15:36.208Z,7.02
2022-10-31T04:18:03.257Z,7.01
2022-10-31T04:20:34.266Z,7.14
2022-10-31T04:23:01.768Z,6.93
2022-10-31T04:25:28.508Z,6.96
2022-10-31T04:27:55.483Z,7.03
2022-10-31T04:30:22.210Z,7.17
2022-10-31T04:32:48.808Z,7.09
2022-10-31T04:35:15.676Z,6.70
2022-10-31T04:37:42.334Z,6.77
2022-10-31T04:40:09.532Z,6.90
2022-10-31T04:42:36.194Z,6.97
2022-10-31T04:45:02.830Z,6.98
2022-10-31T04:47:32.500Z,6.90
2022-10-31T04:49:59.233Z,6.98
2022-10-31T04:52:25.858Z,6.98
2022-10-31T04:54:52.425Z,6.94
2022-10-31T04:57:19.058Z,6.99
2022-10-31T04:59:45.644Z,7.10
2022-10-31T05:02:12.439Z,7.34
2022-10-31T05:04:39.161Z,7.29
2022-10-31T05:07:05.839Z,7.20
2022-10-31T05:09:32.486Z,7.24
2022-10-31T05:11:59.123Z,7.07
2022-10-31T05:14:25.822Z,7.20
2022-10-31T05:16:52.433Z,7.31
2022-10-31T05:19:19.053Z,7.53
2022-10-31T05:21:45.676Z,7.46
2022-10-31T05:24:12.364Z,7.72
2022-10-31T05:27:07.015Z,7.48
2022-10-31T05:29:34.453Z,7.50
2022-10-31T05:32:01.089Z,7.57
2022-10-31T05:34:27.735Z,7.63
2022-10-31T05:36:54.333Z,7.82
2022-10-31T05:39:20.996Z,7.75
2022-10-31T05:41:47.615Z,7.83
2022-10-31T05:44:14.251Z,7.98
2022-10-31T05:46:40.852Z,8.02
2022-10-31T05:49:07.523Z,7.93
2022-10-31T05:51:34.176Z,8.19
2022-10-31T05:54:00.831Z,8.23
2022-10-31T05:56:28.259Z,7.83
2022-10-31T05:58:54.962Z,8.04
2022-10-31T06:01:21.687Z,8.27
2022-10-31T06:03:48.448Z,8.22
2022-10-31T06:06:15.078Z,8.14
2022-10-31T06:08:41.741Z,8.31
2022-10-31T06:11:08.381Z,8.16
2022-10-31T06:13:34.963Z,8.19
2022-10-31T06:16:01.634Z,8.33
2022-10-31T06:18:28.261Z,8.38
2022-10-31T06:20:54.853Z,8.36
2022-10-31T06:23:21.493Z,8.61
2022-10-31T06:25:51.323Z,8.59
2022-10-31T06:28:18.179Z,8.51
2022-10-31T06:30:44.750Z,8.96
2022-10-31T06:33:11.350Z,9.18
2022-10-31T06:35:38.017Z,9.23
2022-10-31T06:38:04.987Z,9.44
2022-10-31T06:40:31.941Z,9.61
2022-10-31T06:43:02.540Z,9.51
2022-10-31T06:45:29.251Z,9.80
2022-10-31T06:48:16.197Z,10.18
2022-10-31T06:50:42.856Z,9.92
2022-10-31T06:55:37.395Z,10.27
2022-10-31T06:58:04.460Z,10.72
2022-10-31T07:00:31.539Z,10.72
2022-10-31T07:03:02.796Z,10.79
2022-10-31T07:05:29.817Z,11.08
2022-10-31T07:08:00.924Z,11.26
2022-10-31T07:10:29.053Z,11.37
2022-10-31T07:13:00.625Z,11.47
2022-10-31T07:15:28.410Z,11.66
2022-10-31T07:17:55.190Z,11.87
2022-10-31T07:20:21.817Z,11.73
2022-10-31T07:22:50.722Z,11.78
2022-10-31T07:25:17.564Z,12.24
2022-10-31T07:27:44.262Z,12.81
2022-10-31T07:30:12.126Z,12.62
2022-10-31T07:32:43.173Z,13.03
2022-10-31T07:35:10.726Z,13.10
2022-10-31T07:37:37.375Z,13.22
2022-10-31T07:40:05.068Z,13.29
2022-10-31T07:42:41.798Z,12.99
2022-10-31T07:45:11.049Z,13.63
2022-10-31T07:47:45.286Z,14.04
2022-10-31T07:50:35.015Z,14.38
2022-10-31T07:53:06.265Z,14.77
2022-10-31T07:55:33.066Z,14.96
2022-10-31T07:58:07.850Z,15.07
2022-10-31T08:00:35.556Z,15.61
2022-10-31T08:03:06.471Z,15.87
2022-10-31T08:05:33.536Z,16.09
2022-10-31T08:08:00.468Z,16.07
2022-10-31T08:10:27.829Z,16.26
2022-10-31T08:13:07.839Z,16.74
2022-10-31T08:15:37.879Z,16.95
2022-10-31T08:18:05.183Z,17.33
2022-10-31T08:20:31.843Z,17.04
2022-10-31T08:23:00.846Z,17.61
2022-10-31T08:25:30.928Z,17.61
2022-10-31T08:28:00.899Z,17.58
2022-10-31T08:30:32.181Z,18.06
2022-10-31T08:33:14.984Z,18.15
2022-10-31T08:35:41.821Z,17.96
2022-10-31T08:38:09.846Z,18.41
2022-10-31T08:40:36.604Z,17.93
2022-10-31T08:43:16.576Z,18.41
2022-10-31T08:45:43.970Z,17.97
2022-10-31T08:48:12.350Z,18.51
2022-10-31T08:50:39.114Z,18.92
2022-10-31T08:53:07.806Z,19.08
2022-10-31T08:55:38.223Z,19.00
2022-10-31T08:58:06.303Z,19.23
2022-10-31T09:00:33.787Z,19.27
2022-10-31T09:03:01.890Z,19.41
2022-10-31T09:05:28.587Z,19.56
2022-10-31T09:07:59.519Z,19.54
2022-10-31T09:10:26.766Z,19.81
2022-10-31T09:13:01.578Z,19.94
2022-10-31T09:15:28.705Z,20.07
2022-10-31T09:17:55.459Z,20.25
2022-10-31T09:20:22.231Z,20.05
2022-10-31T09:22:48.977Z,20.29
2022-10-31T09:25:15.685Z,20.39
2022-10-31T09:27:42.357Z,20.24
2022-10-31T09:30:09.545Z,20.32
2022-10-31T09:32:36.121Z,20.63
2022-10-31T09:35:02.792Z,20.88
2022-10-31T09:37:29.547Z,20.86
2022-10-31T09:39:56.187Z,21.12
2022-10-31T09:42:41.155Z,21.12
2022-10-31T09:45:09.413Z,21.39
2022-10-31T09:48:01.053Z,21.31
2022-10-31T09:50:32.629Z,21.36
2022-10-31T09:53:05.992Z,21.36
2022-10-31T09:55:37.515Z,21.13
2022-10-31T09:58:04.210Z,21.24
2022-10-31T10:00:33.079Z,21.57
2022-10-31T10:03:20.918Z,21.71
2022-10-31T10:05:52.752Z,21.86
2022-10-31T10:08:27.763Z,22.02
2022-10-31T10:11:06.450Z,21.94
2022-10-31T10:13:38.735Z,22.28
2022-10-31T10:16:34.591Z,21.96
2022-10-31T10:19:23.909Z,22.10
2022-10-31T10:22:09.478Z,21.93
2022-10-31T10:25:11.524Z,22.23
2022-10-31T10:28:05.668Z,22.34
2022-10-31T10:30:42.846Z,22.28
2022-10-31T10:33:17.264Z,22.35
2022-10-31T10:35:47.216Z,22.63
2022-10-31T10:38:43.629Z,22.74
2022-10-31T10:41:18.869Z,22.34
2022-10-31T10:46:48.846Z,22.98
2022-10-31T10:49:24.198Z,22.73
2022-10-31T10:52:07.504Z,22.90
2022-10-31T10:54:48.680Z,22.80
2022-10-31T10:57:29.375Z,22.87
2022-10-31T10:59:55.959Z,23.03
2022-10-31T11:02:32.082Z,22.78
2022-10-31T11:04:59.437Z,22.78
2022-10-31T11:07:26.115Z,22.69
2022-10-31T11:10:04.198Z,23.03
2022-10-31T11:12:33.133Z,22.64
2022-10-31T11:15:01.341Z,22.88
2022-10-31T11:17:31.906Z,22.48
2022-10-31T11:20:17.831Z,22.51
2022-10-31T11:22:49.267Z,22.68
2022-10-31T11:25:22.692Z,22.56
2022-10-31T11:28:02.995Z,23.00
2022-10-31T11:30:29.871Z,22.83
2022-10-31T11:32:56.449Z,22.67
2022-10-31T11:35:23.668Z,22.47
2022-10-31T11:37:51.761Z,22.36
2022-10-31T11:40:23.621Z,22.39
2022-10-31T11:42:50.279Z,22.53
2022-10-31T11:45:17.813Z,22.50
2022-10-31T11:47:47.141Z,22.51
2022-10-31T11:50:20.462Z,22.25
2022-10-31T11:52:47.103Z,22.37
2022-10-31T11:55:13.657Z,22.33
2022-10-31T11:57:52.151Z,22.40
2022-10-31T12:00:22.414Z,22.30
2022-10-31T12:02:49.106Z,22.10
2022-10-31T12:05:23.431Z,22.08
2022-10-31T12:07:50.162Z,22.00
2022-10-31T12:10:17.125Z,22.42
2022-10-31T12:12:49.782Z,22.50
2022-10-31T12:15:30.473Z,22.26
2022-10-31T12:18:12.378Z,22.57
2022-10-31T12:20:57.292Z,22.39
2022-10-31T12:23:52.441Z,22.43
2022-10-31T12:26:27.185Z,22.48
2022-10-31T12:29:15.709Z,21.99
2022-10-31T12:32:36.425Z,22.43
2022-10-31T12:35:15.202Z,22.92
2022-10-31T12:38:04.512Z,23.06
2022-10-31T12:40:40.255Z,21.97
2022-10-31T12:43:12.802Z,21.98
2022-10-31T12:45:58.049Z,22.19
2022-10-31T12:48:51.620Z,22.19
2022-10-31T12:51:46.543Z,21.99
2022-10-31T12:54:42.818Z,22.32
2022-10-31T12:57:29.428Z,22.40
2022-10-31T13:00:24.208Z,22.47
2022-10-31T13:02:57.763Z,22.24
2022-10-31T13:05:43.090Z,22.25
2022-10-31T13:08:15.461Z,22.35
2022-10-31T13:11:03.255Z,22.41
2022-10-31T13:13:37.093Z,22.34
2022-10-31T13:16:15.024Z,22.18
2022-10-31T13:18:43.847Z,22.15
2022-10-31T13:21:24.907Z,21.68
2022-10-31T13:23:52.735Z,22.00
2022-10-31T13:26:30.253Z,22.19
2022-10-31T13:29:21.351Z,22.35
2022-10-31T13:31:47.999Z,22.11
2022-10-31T13:34:28.153Z,21.94
2022-10-31T13:37:12.956Z,21.86
2022-10-31T13:39:48.484Z,21.87
2022-10-31T13:42:29.651Z,21.88
2022-10-31T13:44:56.253Z,21.91
2022-10-31T13:47:27.642Z,21.89
2022-10-31T13:50:07.297Z,21.84
2022-10-31T13:52:33.983Z,21.89
2022-10-31T13:55:00.621Z,21.65
2022-10-31T13:57:34.877Z,21.67
2022-10-31T14:00:21.897Z,21.71
2022-10-31T14:02:53.429Z,21.73
2022-10-31T14:05:33.074Z,21.56
2022-10-31T14:08:02.570Z,21.59
2022-10-31T14:10:39.954Z,21.57
2022-10-31T14:13:18.285Z,21.50
2022-10-31T14:16:00.982Z,21.54
2022-10-31T14:18:41.415Z,21.38
2022-10-31T14:21:24.227Z,21.38
2022-10-31T14:23:54.135Z,21.23
2022-10-31T14:26:27.668Z,21.22
2022-10-31T14:28:55.929Z,21.25
2022-10-31T14:31:41.786Z,21.22
2022-10-31T14:34:32.084Z,20.99
2022-10-31T14:37:13.924Z,21.11
2022-10-31T14:40:11.550Z,21.03
2022-10-31T14:42:43.902Z,20.83
2022-10-31T14:45:19.412Z,20.60
2022-10-31T14:48:03.828Z,20.57
2022-10-31T14:50:48.295Z,20.44
2022-10-31T14:53:25.917Z,20.40
2022-10-31T14:55:56.393Z,20.30
2022-10-31T14:58:40.336Z,20.20
2022-10-31T15:01:07.025Z,20.06
2022-10-31T15:03:44.582Z,20.06
2022-10-31T15:06:20.952Z,19.83
2022-10-31T15:08:49.750Z,19.52
2022-10-31T15:11:24.478Z,19.31
2022-10-31T15:13:52.050Z,19.13
2022-10-31T15:16:35.613Z,18.84
2022-10-31T15:19:06.902Z,18.57
2022-10-31T15:21:33.583Z,18.38
2022-10-31T15:24:01.484Z,18.20
2022-10-31T15:26:33.814Z,18.06
2022-10-31T15:29:05.642Z,17.71
2022-10-31T15:31:32.329Z,17.69
2022-10-31T15:34:02.841Z,17.36
2022-10-31T15:36:31.341Z,17.23
2022-10-31T15:38:59.929Z,16.83
2022-10-31T15:41:53.132Z,16.46
2022-10-31T15:44:24.760Z,16.73
2022-10-31T15:47:16.930Z,16.31
2022-10-31T15:49:54.764Z,16.24
2022-10-31T15:52:51.248Z,15.92
2022-10-31T15:55:22.890Z,15.90
2022-10-31T15:57:53.789Z,15.56
2022-10-31T16:00:34.223Z,15.62
2022-10-31T16:03:25.121Z,15.50
2022-10-31T16:05:53.737Z,15.18
2022-10-31T16:08:29.921Z,15.31
2022-10-31T16:11:08.895Z,15.22
2022-10-31T16:13:41.443Z,15.11
2022-10-31T16:19:03.482Z,14.80
2022-10-31T16:21:35.211Z,14.89
2022-10-31T16:24:14.147Z,14.83
2022-10-31T16:26:40.730Z,14.50
2022-10-31T16:29:46.818Z,14.13
2022-10-31T16:32:24.998Z,13.58
2022-10-31T16:35:10.364Z,13.91
2022-10-31T16:37:40.825Z,14.37
2022-10-31T16:40:08.892Z,13.98
2022-10-31T16:42:35.587Z,14.13
2022-10-31T16:45:02.422Z,13.86
2022-10-31T16:47:29.437Z,13.79
2022-10-31T16:50:00.822Z,13.64
2022-10-31T16:52:27.694Z,13.86
2022-10-31T16:54:55.192Z,13.70
2022-10-31T16:57:27.406Z,13.40
2022-10-31T16:59:56.912Z,12.92
2022-10-31T17:02:23.580Z,12.58
2022-10-31T17:04:53.801Z,12.70
2022-10-31T17:07:23.373Z,12.83
2022-10-31T17:09:50.011Z,12.82
2022-10-31T17:12:19.423Z,13.01
2022-10-31T17:14:48.018Z,13.05
2022-10-31T17:17:14.680Z,12.99
2022-10-31T17:19:41.489Z,12.97
2022-10-31T17:22:12.461Z,12.64
2022-10-31T17:24:39.153Z,12.61
2022-10-31T17:27:05.806Z,12.71
2022-10-31T17:29:32.927Z,12.78
2022-10-31T17:32:00.338Z,13.08
2022-10-31T17:34:27.009Z,13.01
2022-10-31T17:36:53.630Z,12.77
2022-10-31T17:39:20.450Z,12.68
2022-10-31T17:41:51.737Z,12.58
2022-10-31T17:44:18.619Z,12.47
2022-10-31T17:46:45.222Z,12.08
2022-10-31T17:49:12.296Z,12.17
2022-10-31T17:51:39.030Z,12.10
2022-10-31T17:54:07.110Z,11.84
2022-10-31T17:56:33.785Z,11.86
2022-10-31T17:59:00.483Z,11.79
2022-10-31T18:01:27.292Z,11.65
2022-10-31T18:03:54.031Z,11.48
2022-10-31T18:06:20.724Z,11.49
2022-10-31T18:08:47.400Z,11.24
2022-10-31T18:11:17.867Z,10.91
2022-10-31T18:13:44.602Z,11.30
2022-10-31T18:16:16.247Z,11.39
2022-10-31T18:18:42.902Z,11.37
2022-10-31T18:21:09.594Z,11.13
2022-10-31T18:23:36.360Z,11.06
2022-10-31T18:26:02.965Z,11.13
2022-10-31T18:28:29.598Z,11.09
2022-10-31T18:30:59.413Z,11.03
2022-10-31T18:33:26.112Z,10.70
2022-10-31T18:35:52.777Z,10.75
2022-10-31T18:38:19.470Z,10.54
2022-10-31T18:40:46.063Z,10.77
2022-10-31T18:43:12.803Z,10.88
2022-10-31T18:45:48.123Z,10.73
2022-10-31T18:48:16.285Z,10.45
2022-10-31T18:50:43.220Z,10.60
2022-10-31T18:53:09.980Z,10.28
2022-10-31T18:55:45.532Z,9.45
2022-10-31T18:58:15.899Z,9.47
2022-10-31T19:00:42.574Z,9.76
2022-10-31T19:03:09.525Z,9.58
2022-10-31T19:05:36.167Z,9.62
2022-10-31T19:08:02.853Z,9.60
2022-10-31T19:10:29.500Z,9.39
2022-10-31T19:12:56.070Z,9.42
2022-10-31T19:15:22.726Z,9.47
2022-10-31T19:17:49.516Z,9.56
2022-10-31T19:20:16.282Z,9.56
2022-10-31T19:22:42.874Z,9.27
2022-10-31T19:25:11.037Z,9.09
2022-10-31T19:27:38.212Z,9.17
2022-10-31T19:30:05.603Z,9.24
2022-10-31T19:32:32.293Z,9.16
2022-10-31T19:34:58.990Z,8.62
2022-10-31T19:37:25.636Z,9.09
2022-10-31T19:39:52.710Z,9.29
2022-10-31T19:42:19.477Z,8.92
2022-10-31T19:44:46.058Z,8.74
2022-10-31T19:47:12.729Z,8.80
2022-10-31T19:49:39.354Z,8.94
2022-10-31T19:52:05.962Z,8.95
2022-10-31T19:54:32.670Z,8.80
2022-10-31T19:56:59.294Z,8.65
2022-10-31T19:59:26.356Z,8.77
2022-10-31T20:01:53.133Z,8.56
2022-10-31T20:04:19.898Z,8.26
2022-10-31T20:06:46.570Z,8.16
2022-10-31T20:09:13.914Z,8.59
2022-10-31T20:11:41.560Z,8.65
2022-10-31T20:14:08.317Z,8.76
2022-10-31T20:16:35.055Z,8.84
2022-10-31T20:19:01.740Z,8.86
2022-10-31T20:21:29.813Z,8.62
2022-10-31T20:24:00.587Z,8.37
2022-10-31T20:26:27.489Z,8.25
2022-10-31T20:28:55.848Z,7.88
2022-10-31T20:31:23.758Z,7.82
2022-10-31T20:33:50.481Z,7.81
2022-10-31T20:36:21.125Z,7.93
2022-10-31T20:38:47.862Z,7.78
2022-10-31T20:41:15.172Z,7.84
2022-10-31T20:43:42.173Z,7.89
2022-10-31T20:46:15.004Z,7.99
2022-10-31T20:48:41.635Z,8.37
2022-10-31T20:53:48.722Z,7.30
2022-10-31T20:56:17.076Z,7.63
2022-10-31T20:58:44.360Z,7.99
2022-10-31T21:01:15.655Z,7.96
2022-10-31T21:03:42.648Z,7.86
2022-10-31T21:06:10.398Z,7.83
2022-10-31T21:08:37.125Z,7.90
2022-10-31T21:11:23.685Z,8.18
2022-10-31T21:13:50.722Z,8.12
2022-10-31T21:16:22.353Z,8.06
2022-10-31T21:18:51.746Z,7.47
2022-10-31T21:21:20.029Z,7.28
2022-10-31T21:23:46.951Z,7.23
2022-10-31T21:26:15.732Z,7.22
2022-10-31T21:28:42.449Z,6.86
2022-10-31T21:31:10.515Z,7.11
2022-10-31T21:33:37.364Z,7.35
2022-10-31T21:36:04.546Z,7.63
2022-10-31T21:38:31.316Z,7.85
2022-10-31T21:41:14.602Z,7.65
2022-10-31T21:44:01.125Z,7.18
2022-10-31T21:46:29.698Z,6.91
2022-10-31T21:48:56.513Z,6.82
2022-10-31T21:51:25.064Z,7.02
2022-10-31T21:54:10.477Z,6.90
2022-10-31T21:56:37.309Z,6.93
2022-10-31T21:59:04.939Z,7.02
2022-10-31T22:01:31.813Z,7.04
2022-10-31T22:03:58.626Z,7.23
2022-10-31T22:06:30.174Z,7.15
2022-10-31T22:08:58.609Z,7.49
2022-10-31T22:11:25.319Z,7.44
2022-10-31T22:13:51.983Z,7.56
2022-10-31T22:16:22.852Z,7.46
2022-10-31T22:18:52.320Z,7.41
2022-10-31T22:21:20.155Z,7.34
2022-10-31T22:24:07.441Z,6.74
2022-10-31T22:26:34.490Z,6.59
2022-10-31T22:29:03.454Z,6.58
2022-10-31T22:31:30.628Z,6.81
2022-10-31T22:33:57.384Z,6.95
2022-10-31T22:36:25.694Z,7.27
2022-10-31T22:38:52.393Z,7.36
2022-10-31T22:41:20.686Z,7.40
2022-10-31T22:43:47.460Z,7.31
2022-10-31T22:46:19.202Z,7.45
2022-10-31T22:48:50.689Z,7.40
2022-10-31T22:51:37.894Z,7.17
2022-10-31T22:54:05.536Z,7.16
2022-10-31T22:56:33.123Z,7.12
2022-10-31T22:59:05.998Z,6.95
2022-10-31T23:01:33.443Z,6.53
2022-10-31T23:04:03.136Z,6.44
2022-10-31T23:06:31.313Z,6.40
2022-10-31T23:08:58.981Z,6.44
2022-10-31T23:11:35.443Z,6.51
2022-10-31T23:14:10.101Z,6.67
2022-10-31T23:16:37.593Z,6.29
2022-10-31T23:19:07.855Z,6.26
2022-10-31T23:21:57.359Z,6.28
2022-10-31T23:24:40.199Z,6.38
2022-10-31T23:27:13.144Z,6.29
2022-10-31T23:29:40.948Z,6.51
2022-10-31T23:32:11.207Z,6.07
2022-10-31T23:34:37.897Z,5.95
2022-10-31T23:37:04.485Z,5.94
2022-10-31T23:39:31.245Z,6.23
2022-10-31T23:41:57.994Z,6.38
2022-10-31T23:44:24.700Z,6.57
2022-10-31T23:46:51.294Z,6.44
2022-10-31T23:49:17.993Z,6.34
2022-10-31T23:51:44.642Z,6.09
2022-10-31T23:54:11.367Z,5.73
2022-10-31T23:56:38.097Z,5.84
2022-10-31T23:59:05.942Z,5.68
